Terminal Aerodrome Forecast
Issued by NWS Cleveland, OH

Home | Current Version | Previous Version | Graphics & Text | Print | Product List | Glossary On
Versions: 1 2 3 4 5 6 7 8 9 10 11 12 13 14 15 16 17 18
000
FTUS41 KCLE 020523
TAFCAK
TAF
KCAK 020523Z 0206/0306 03006KT P6SM OVC015
     FM020800 03005KT 6SM BR BKN006
     FM021700 05009KT P6SM BKN050
     FM022000 05009KT P6SM BKN250=

USA.gov is the U.S. government's official web portal to all federal, state and local government web resources and services.